sensor_id;sensor_type;location;lat;lon;timestamp;temperature;humidity
2611;DHT22;5612;51.134;17.058;2022-12-24T00:01:21;8.50;99.90
2611;DHT22;5612;51.134;17.058;2022-12-24T00:03:50;8.50;99.90
2611;DHT22;5612;51.134;17.058;2022-12-24T00:06:20;8.50;99.90
2611;DHT22;5612;51.134;17.058;2022-12-24T00:08:49;8.50;99.90
2611;DHT22;5612;51.134;17.058;2022-12-24T00:11:18;8.50;99.90
2611;DHT22;5612;51.134;17.058;2022-12-24T00:13:47;8.50;99.90
2611;DHT22;5612;51.134;17.058;2022-12-24T00:16:19;8.40;99.90
2611;DHT22;5612;51.134;17.058;2022-12-24T00:18:48;8.30;99.90
2611;DHT22;5612;51.134;17.058;2022-12-24T00:21:17;8.40;99.90
2611;DHT22;5612;51.134;17.058;2022-12-24T00:23:45;8.50;99.90
2611;DHT22;5612;51.134;17.058;2022-12-24T00:26:14;8.50;99.90
2611;DHT22;5612;51.134;17.058;2022-12-24T00:28:43;8.50;99.90
2611;DHT22;5612;51.134;17.058;2022-12-24T00:31:14;8.50;99.90
2611;DHT22;5612;51.134;17.058;2022-12-24T00:33:45;8.40;99.90
2611;DHT22;5612;51.134;17.058;2022-12-24T00:36:14;8.30;99.90
2611;DHT22;5612;51.134;17.058;2022-12-24T00:38:43;8.30;99.90
2611;DHT22;5612;51.134;17.058;2022-12-24T00:41:13;8.20;99.90
2611;DHT22;5612;51.134;17.058;2022-12-24T00:43:53;8.40;99.90
2611;DHT22;5612;51.134;17.058;2022-12-24T00:46:23;8.40;99.90
2611;DHT22;5612;51.134;17.058;2022-12-24T00:48:54;8.40;99.90
2611;DHT22;5612;51.134;17.058;2022-12-24T00:51:23;8.50;99.90
2611;DHT22;5612;51.134;17.058;2022-12-24T00:53:54;8.50;99.90
2611;DHT22;5612;51.134;17.058;2022-12-24T00:56:23;8.60;99.90
2611;DHT22;5612;51.134;17.058;2022-12-24T00:58:53;8.60;99.90
2611;DHT22;5612;51.134;17.058;2022-12-24T01:01:22;8.70;99.90
2611;DHT22;5612;51.134;17.058;2022-12-24T01:03:53;8.80;99.90
2611;DHT22;5612;51.134;17.058;2022-12-24T01:06:42;8.90;99.90
2611;DHT22;5612;51.134;17.058;2022-12-24T01:09:10;8.90;99.90
2611;DHT22;5612;51.134;17.058;2022-12-24T01:11:39;8.80;99.90
2611;DHT22;5612;51.134;17.058;2022-12-24T01:14:08;8.80;99.90
2611;DHT22;5612;51.134;17.058;2022-12-24T01:16:37;8.70;99.90
2611;DHT22;5612;51.134;17.058;2022-12-24T01:19:07;8.80;99.90
2611;DHT22;5612;51.134;17.058;2022-12-24T01:21:36;8.80;99.90
2611;DHT22;5612;51.134;17.058;2022-12-24T01:24:05;8.70;99.90
2611;DHT22;5612;51.134;17.058;2022-12-24T01:26:34;8.70;99.90
2611;DHT22;5612;51.134;17.058;2022-12-24T01:29:02;8.80;99.90
2611;DHT22;5612;51.134;17.058;2022-12-24T01:31:31;8.80;99.90
2611;DHT22;5612;51.134;17.058;2022-12-24T01:34:00;8.90;99.90
2611;DHT22;5612;51.134;17.058;2022-12-24T01:36:30;8.80;99.90
2611;DHT22;5612;51.134;17.058;2022-12-24T01:38:59;8.90;99.90
2611;DHT22;5612;51.134;17.058;2022-12-24T01:41:30;8.90;99.90
2611;DHT22;5612;51.134;17.058;2022-12-24T01:44:20;8.90;99.90
2611;DHT22;5612;51.134;17.058;2022-12-24T01:46:51;8.90;99.90
2611;DHT22;5612;51.134;17.058;2022-12-24T01:49:21;8.80;99.90
2611;DHT22;5612;51.134;17.058;2022-12-24T01:51:55;8.70;99.90
2611;DHT22;5612;51.134;17.058;2022-12-24T01:54:28;8.60;99.90
2611;DHT22;5612;51.134;17.058;2022-12-24T01:57:01;8.60;99.90
2611;DHT22;5612;51.134;17.058;2022-12-24T01:59:31;8.60;99.90
2611;DHT22;5612;51.134;17.058;2022-12-24T02:02:01;8.50;99.90
2611;DHT22;5612;51.134;17.058;2022-12-24T02:04:35;8.50;99.90
2611;DHT22;5612;51.134;17.058;2022-12-24T02:07:06;8.50;99.90
2611;DHT22;5612;51.134;17.058;2022-12-24T02:09:35;8.40;99.90
2611;DHT22;5612;51.134;17.058;2022-12-24T02:12:05;8.40;99.90
2611;DHT22;5612;51.134;17.058;2022-12-24T02:14:35;8.30;99.90
2611;DHT22;5612;51.134;17.058;2022-12-24T02:17:12;8.40;99.90
2611;DHT22;5612;51.134;17.058;2022-12-24T02:20:26;8.30;99.90
2611;DHT22;5612;51.134;17.058;2022-12-24T02:26:12;8.30;99.90
2611;DHT22;5612;51.134;17.058;2022-12-24T02:28:59;8.20;99.90
2611;DHT22;5612;51.134;17.058;2022-12-24T02:31:36;8.20;99.90
2611;DHT22;5612;51.134;17.058;2022-12-24T02:34:09;8.10;99.90
2611;DHT22;5612;51.134;17.058;2022-12-24T02:36:44;8.10;99.90
2611;DHT22;5612;51.134;17.058;2022-12-24T02:39:18;8.10;99.90
2611;DHT22;5612;51.134;17.058;2022-12-24T02:41:50;8.10;99.90
2611;DHT22;5612;51.134;17.058;2022-12-24T02:44:40;8.10;99.90
2611;DHT22;5612;51.134;17.058;2022-12-24T02:47:13;8.10;99.90
2611;DHT22;5612;51.134;17.058;2022-12-24T02:49:43;8.20;99.90
2611;DHT22;5612;51.134;17.058;2022-12-24T02:52:28;8.30;99.90
2611;DHT22;5612;51.134;17.058;2022-12-24T02:54:59;8.40;99.90
2611;DHT22;5612;51.134;17.058;2022-12-24T02:57:42;8.40;99.90
2611;DHT22;5612;51.134;17.058;2022-12-24T03:00:17;8.50;99.90
2611;DHT22;5612;51.134;17.058;2022-12-24T03:03:00;8.50;99.90
2611;DHT22;5612;51.134;17.058;2022-12-24T03:05:39;8.50;99.90
2611;DHT22;5612;51.134;17.058;2022-12-24T03:08:14;8.40;99.90
2611;DHT22;5612;51.134;17.058;2022-12-24T03:10:49;8.40;99.90
2611;DHT22;5612;51.134;17.058;2022-12-24T03:13:20;8.40;99.90
2611;DHT22;5612;51.134;17.058;2022-12-24T03:15:50;8.40;99.90
2611;DHT22;5612;51.134;17.058;2022-12-24T03:18:23;8.30;99.90
2611;DHT22;5612;51.134;17.058;2022-12-24T03:20:57;8.50;99.90
2611;DHT22;5612;51.134;17.058;2022-12-24T03:23:28;8.50;99.90
2611;DHT22;5612;51.134;17.058;2022-12-24T03:25:59;8.50;99.90
2611;DHT22;5612;51.134;17.058;2022-12-24T03:28:29;8.50;99.90
2611;DHT22;5612;51.134;17.058;2022-12-24T03:31:00;8.60;99.90
2611;DHT22;5612;51.134;17.058;2022-12-24T03:33:32;8.60;99.90
2611;DHT22;5612;51.134;17.058;2022-12-24T03:36:01;8.70;99.90
2611;DHT22;5612;51.134;17.058;2022-12-24T03:38:30;8.80;99.90
2611;DHT22;5612;51.134;17.058;2022-12-24T03:40:59;8.80;99.90
2611;DHT22;5612;51.134;17.058;2022-12-24T03:43:28;8.80;99.90
2611;DHT22;5612;51.134;17.058;2022-12-24T03:45:56;8.90;99.90
2611;DHT22;5612;51.134;17.058;2022-12-24T03:48:25;8.90;99.90
2611;DHT22;5612;51.134;17.058;2022-12-24T03:51:00;8.80;99.90
2611;DHT22;5612;51.134;17.058;2022-12-24T03:53:29;8.70;99.90
2611;DHT22;5612;51.134;17.058;2022-12-24T03:55:58;8.80;99.90
2611;DHT22;5612;51.134;17.058;2022-12-24T03:58:26;8.90;99.90
2611;DHT22;5612;51.134;17.058;2022-12-24T04:00:55;8.80;99.90
2611;DHT22;5612;51.134;17.058;2022-12-24T04:03:24;8.70;99.90
2611;DHT22;5612;51.134;17.058;2022-12-24T04:06:01;8.60;99.90
2611;DHT22;5612;51.134;17.058;2022-12-24T04:08:31;8.50;99.90
2611;DHT22;5612;51.134;17.058;2022-12-24T04:10:59;8.50;99.90
2611;DHT22;5612;51.134;17.058;2022-12-24T04:13:35;8.50;99.90
2611;DHT22;5612;51.134;17.058;2022-12-24T04:16:07;8.50;99.90
2611;DHT22;5612;51.134;17.058;2022-12-24T04:18:37;8.60;99.90
2611;DHT22;5612;51.134;17.058;2022-12-24T04:21:08;8.60;99.90
2611;DHT22;5612;51.134;17.058;2022-12-24T04:23:38;8.50;99.90
2611;DHT22;5612;51.134;17.058;2022-12-24T04:26:09;8.40;99.90
2611;DHT22;5612;51.134;17.058;2022-12-24T04:28:38;8.40;99.90
2611;DHT22;5612;51.134;17.058;2022-12-24T04:31:10;8.50;99.90
2611;DHT22;5612;51.134;17.058;2022-12-24T04:33:39;8.50;99.90
2611;DHT22;5612;51.134;17.058;2022-12-24T04:36:12;8.40;99.90
2611;DHT22;5612;51.134;17.058;2022-12-24T04:38:41;8.50;99.90
2611;DHT22;5612;51.134;17.058;2022-12-24T04:41:11;8.50;99.90
2611;DHT22;5612;51.134;17.058;2022-12-24T04:43:50;8.60;99.90
2611;DHT22;5612;51.134;17.058;2022-12-24T04:46:21;8.50;99.90
2611;DHT22;5612;51.134;17.058;2022-12-24T04:48:52;8.60;99.90
2611;DHT22;5612;51.134;17.058;2022-12-24T04:51:24;8.60;99.90
2611;DHT22;5612;51.134;17.058;2022-12-24T04:53:53;8.60;99.90
2611;DHT22;5612;51.134;17.058;2022-12-24T04:56:24;8.60;99.90
2611;DHT22;5612;51.134;17.058;2022-12-24T04:58:54;8.70;99.90
2611;DHT22;5612;51.134;17.058;2022-12-24T05:01:24;8.70;99.90
2611;DHT22;5612;51.134;17.058;2022-12-24T05:03:53;8.70;99.90
2611;DHT22;5612;51.134;17.058;2022-12-24T05:06:25;8.70;99.90
2611;DHT22;5612;51.134;17.058;2022-12-24T05:08:55;8.70;99.90
2611;DHT22;5612;51.134;17.058;2022-12-24T05:11:24;8.80;99.90
2611;DHT22;5612;51.134;17.058;2022-12-24T05:13:53;8.80;99.90
2611;DHT22;5612;51.134;17.058;2022-12-24T05:16:23;8.80;99.90
2611;DHT22;5612;51.134;17.058;2022-12-24T05:18:52;8.80;99.90
2611;DHT22;5612;51.134;17.058;2022-12-24T05:21:24;8.80;99.90
2611;DHT22;5612;51.134;17.058;2022-12-24T05:23:53;8.90;99.90
2611;DHT22;5612;51.134;17.058;2022-12-24T05:26:41;8.90;99.90
2611;DHT22;5612;51.134;17.058;2022-12-24T05:29:11;8.90;99.90
2611;DHT22;5612;51.134;17.058;2022-12-24T05:31:42;8.90;99.90
2611;DHT22;5612;51.134;17.058;2022-12-24T05:34:12;8.90;99.90
2611;DHT22;5612;51.134;17.058;2022-12-24T05:36:43;8.90;99.90
2611;DHT22;5612;51.134;17.058;2022-12-24T05:39:13;8.90;99.90
2611;DHT22;5612;51.134;17.058;2022-12-24T05:41:43;8.90;99.90
2611;DHT22;5612;51.134;17.058;2022-12-24T05:44:12;8.90;99.90
2611;DHT22;5612;51.134;17.058;2022-12-24T05:46:42;8.90;99.90
2611;DHT22;5612;51.134;17.058;2022-12-24T05:49:11;9.00;99.90
2611;DHT22;5612;51.134;17.058;2022-12-24T05:51:42;9.00;99.90
2611;DHT22;5612;51.134;17.058;2022-12-24T05:54:10;9.00;99.90
2611;DHT22;5612;51.134;17.058;2022-12-24T05:56:39;9.10;99.90
2611;DHT22;5612;51.134;17.058;2022-12-24T05:59:08;9.10;99.90
2611;DHT22;5612;51.134;17.058;2022-12-24T06:01:37;9.20;99.90
2611;DHT22;5612;51.134;17.058;2022-12-24T06:04:06;9.30;99.90
2611;DHT22;5612;51.134;17.058;2022-12-24T06:06:34;9.40;99.90
2611;DHT22;5612;51.134;17.058;2022-12-24T06:09:05;9.40;99.90
2611;DHT22;5612;51.134;17.058;2022-12-24T06:11:34;9.40;99.90
2611;DHT22;5612;51.134;17.058;2022-12-24T06:14:03;9.40;99.90
2611;DHT22;5612;51.134;17.058;2022-12-24T06:16:32;9.50;99.90
2611;DHT22;5612;51.134;17.058;2022-12-24T06:19:03;9.50;99.90
2611;DHT22;5612;51.134;17.058;2022-12-24T06:21:32;9.50;99.90
2611;DHT22;5612;51.134;17.058;2022-12-24T06:24:01;9.50;99.90
2611;DHT22;5612;51.134;17.058;2022-12-24T06:26:31;9.40;99.90
2611;DHT22;5612;51.134;17.058;2022-12-24T06:29:00;9.50;99.90
2611;DHT22;5612;51.134;17.058;2022-12-24T06:31:28;9.60;99.90
2611;DHT22;5612;51.134;17.058;2022-12-24T06:33:57;9.60;99.90
2611;DHT22;5612;51.134;17.058;2022-12-24T06:36:26;9.70;99.90
2611;DHT22;5612;51.134;17.058;2022-12-24T06:38:55;9.70;99.90
2611;DHT22;5612;51.134;17.058;2022-12-24T06:41:24;9.50;99.90
2611;DHT22;5612;51.134;17.058;2022-12-24T06:43:54;9.50;99.90
2611;DHT22;5612;51.134;17.058;2022-12-24T06:46:23;9.50;99.90
2611;DHT22;5612;51.134;17.058;2022-12-24T06:48:52;9.50;99.90
2611;DHT22;5612;51.134;17.058;2022-12-24T06:51:21;9.50;99.90
2611;DHT22;5612;51.134;17.058;2022-12-24T06:53:49;9.40;99.90
2611;DHT22;5612;51.134;17.058;2022-12-24T06:56:19;9.50;99.90
2611;DHT22;5612;51.134;17.058;2022-12-24T06:58:48;9.60;99.90
2611;DHT22;5612;51.134;17.058;2022-12-24T07:01:19;9.60;99.90
2611;DHT22;5612;51.134;17.058;2022-12-24T07:03:50;9.60;99.90
2611;DHT22;5612;51.134;17.058;2022-12-24T07:06:23;9.60;99.90
2611;DHT22;5612;51.134;17.058;2022-12-24T07:08:52;9.50;99.90
2611;DHT22;5612;51.134;17.058;2022-12-24T07:11:22;9.40;99.90
2611;DHT22;5612;51.134;17.058;2022-12-24T07:13:52;9.40;99.90
2611;DHT22;5612;51.134;17.058;2022-12-24T07:16:22;9.40;99.90
2611;DHT22;5612;51.134;17.058;2022-12-24T07:18:51;9.40;99.90
2611;DHT22;5612;51.134;17.058;2022-12-24T07:21:20;9.40;99.90
2611;DHT22;5612;51.134;17.058;2022-12-24T07:23:48;9.40;99.90
2611;DHT22;5612;51.134;17.058;2022-12-24T07:26:17;9.40;99.90
2611;DHT22;5612;51.134;17.058;2022-12-24T07:28:46;9.40;99.90
2611;DHT22;5612;51.134;17.058;2022-12-24T07:31:15;9.30;99.90
2611;DHT22;5612;51.134;17.058;2022-12-24T07:33:45;9.30;99.90
2611;DHT22;5612;51.134;17.058;2022-12-24T07:36:17;9.30;99.90
2611;DHT22;5612;51.134;17.058;2022-12-24T07:38:47;9.40;99.90
2611;DHT22;5612;51.134;17.058;2022-12-24T07:41:16;9.30;99.90
2611;DHT22;5612;51.134;17.058;2022-12-24T07:43:44;9.40;99.90
2611;DHT22;5612;51.134;17.058;2022-12-24T07:46:13;9.40;99.90
2611;DHT22;5612;51.134;17.058;2022-12-24T07:48:42;9.40;99.90
2611;DHT22;5612;51.134;17.058;2022-12-24T07:51:12;9.40;99.90
2611;DHT22;5612;51.134;17.058;2022-12-24T07:53:41;9.40;99.90
2611;DHT22;5612;51.134;17.058;2022-12-24T07:56:14;9.30;99.90
2611;DHT22;5612;51.134;17.058;2022-12-24T07:58:43;9.30;99.90
2611;DHT22;5612;51.134;17.058;2022-12-24T08:01:12;9.30;99.90
2611;DHT22;5612;51.134;17.058;2022-12-24T08:03:41;9.40;99.90
2611;DHT22;5612;51.134;17.058;2022-12-24T08:06:13;9.30;99.90
2611;DHT22;5612;51.134;17.058;2022-12-24T08:08:42;9.40;99.90
2611;DHT22;5612;51.134;17.058;2022-12-24T08:11:15;9.40;99.90
2611;DHT22;5612;51.134;17.058;2022-12-24T08:13:47;9.30;99.90
2611;DHT22;5612;51.134;17.058;2022-12-24T08:16:22;9.30;99.90
2611;DHT22;5612;51.134;17.058;2022-12-24T08:18:52;9.30;99.90
2611;DHT22;5612;51.134;17.058;2022-12-24T08:21:22;9.30;99.90
2611;DHT22;5612;51.134;17.058;2022-12-24T08:23:51;9.40;99.90
2611;DHT22;5612;51.134;17.058;2022-12-24T08:26:20;9.40;99.90
2611;DHT22;5612;51.134;17.058;2022-12-24T08:28:48;9.30;99.90
2611;DHT22;5612;51.134;17.058;2022-12-24T08:31:17;9.30;99.90
2611;DHT22;5612;51.134;17.058;2022-12-24T08:33:47;9.40;99.90
2611;DHT22;5612;51.134;17.058;2022-12-24T08:36:15;9.20;99.90
2611;DHT22;5612;51.134;17.058;2022-12-24T08:38:46;9.20;99.90
2611;DHT22;5612;51.134;17.058;2022-12-24T08:41:15;9.20;99.90
2611;DHT22;5612;51.134;17.058;2022-12-24T08:43:44;9.30;99.90
2611;DHT22;5612;51.134;17.058;2022-12-24T08:46:13;9.30;99.90
2611;DHT22;5612;51.134;17.058;2022-12-24T08:48:42;9.30;99.90
2611;DHT22;5612;51.134;17.058;2022-12-24T08:51:12;9.20;99.90
2611;DHT22;5612;51.134;17.058;2022-12-24T08:53:41;9.10;99.90
2611;DHT22;5612;51.134;17.058;2022-12-24T08:56:11;9.20;99.90
2611;DHT22;5612;51.134;17.058;2022-12-24T08:58:40;9.20;99.90
2611;DHT22;5612;51.134;17.058;2022-12-24T09:01:11;9.30;99.90
2611;DHT22;5612;51.134;17.058;2022-12-24T09:03:41;9.20;99.90
2611;DHT22;5612;51.134;17.058;2022-12-24T09:06:10;9.20;99.90
2611;DHT22;5612;51.134;17.058;2022-12-24T09:08:39;9.20;99.90
2611;DHT22;5612;51.134;17.058;2022-12-24T09:11:11;9.30;99.90
2611;DHT22;5612;51.134;17.058;2022-12-24T09:13:41;9.20;99.90
2611;DHT22;5612;51.134;17.058;2022-12-24T09:16:11;9.10;99.90
2611;DHT22;5612;51.134;17.058;2022-12-24T09:18:42;9.10;99.90
2611;DHT22;5612;51.134;17.058;2022-12-24T09:21:12;9.20;99.90
2611;DHT22;5612;51.134;17.058;2022-12-24T09:23:43;9.30;99.90
2611;DHT22;5612;51.134;17.058;2022-12-24T09:26:16;9.40;99.90
2611;DHT22;5612;51.134;17.058;2022-12-24T09:28:46;9.10;99.90
2611;DHT22;5612;51.134;17.058;2022-12-24T09:31:16;9.20;99.90
2611;DHT22;5612;51.134;17.058;2022-12-24T09:33:46;9.20;99.90
2611;DHT22;5612;51.134;17.058;2022-12-24T09:36:17;9.10;99.90
2611;DHT22;5612;51.134;17.058;2022-12-24T09:38:50;9.10;99.90
2611;DHT22;5612;51.134;17.058;2022-12-24T09:41:36;9.10;99.90
2611;DHT22;5612;51.134;17.058;2022-12-24T09:44:26;9.20;99.90
2611;DHT22;5612;51.134;17.058;2022-12-24T09:47:03;9.30;99.90
2611;DHT22;5612;51.134;17.058;2022-12-24T09:49:41;9.30;99.90
2611;DHT22;5612;51.134;17.058;2022-12-24T09:52:14;9.40;99.90
2611;DHT22;5612;51.134;17.058;2022-12-24T09:54:46;9.30;99.90
2611;DHT22;5612;51.134;17.058;2022-12-24T09:57:24;9.40;99.90
2611;DHT22;5612;51.134;17.058;2022-12-24T09:59:55;9.30;99.90
2611;DHT22;5612;51.134;17.058;2022-12-24T10:02:25;9.20;99.90
2611;DHT22;5612;51.134;17.058;2022-12-24T10:04:55;9.20;99.90
2611;DHT22;5612;51.134;17.058;2022-12-24T10:07:30;9.30;99.90
2611;DHT22;5612;51.134;17.058;2022-12-24T10:10:11;9.30;99.90
2611;DHT22;5612;51.134;17.058;2022-12-24T10:12:52;9.10;99.90
2611;DHT22;5612;51.134;17.058;2022-12-24T10:15:28;9.10;99.90
2611;DHT22;5612;51.134;17.058;2022-12-24T10:18:08;9.10;99.90
2611;DHT22;5612;51.134;17.058;2022-12-24T10:20:47;9.10;99.90
2611;DHT22;5612;51.134;17.058;2022-12-24T10:23:27;9.00;99.90
2611;DHT22;5612;51.134;17.058;2022-12-24T10:26:04;9.10;99.90
2611;DHT22;5612;51.134;17.058;2022-12-24T10:28:43;9.00;99.90
2611;DHT22;5612;51.134;17.058;2022-12-24T10:31:14;9.10;99.90
2611;DHT22;5612;51.134;17.058;2022-12-24T10:33:54;9.10;99.90
2611;DHT22;5612;51.134;17.058;2022-12-24T10:36:28;9.00;99.90
2611;DHT22;5612;51.134;17.058;2022-12-24T10:38:59;9.10;99.90
2611;DHT22;5612;51.134;17.058;2022-12-24T10:41:35;9.10;99.90
2611;DHT22;5612;51.134;17.058;2022-12-24T10:44:09;9.10;99.90
2611;DHT22;5612;51.134;17.058;2022-12-24T10:46:44;9.20;99.90
2611;DHT22;5612;51.134;17.058;2022-12-24T10:49:17;9.10;99.90
2611;DHT22;5612;51.134;17.058;2022-12-24T10:51:49;9.00;99.90
2611;DHT22;5612;51.134;17.058;2022-12-24T10:54:22;8.90;99.90
2611;DHT22;5612;51.134;17.058;2022-12-24T10:56:56;8.90;99.90
2611;DHT22;5612;51.134;17.058;2022-12-24T10:59:29;8.90;99.90
2611;DHT22;5612;51.134;17.058;2022-12-24T11:02:00;8.90;99.90
2611;DHT22;5612;51.134;17.058;2022-12-24T11:04:31;9.00;99.90
2611;DHT22;5612;51.134;17.058;2022-12-24T11:07:03;8.80;99.90
2611;DHT22;5612;51.134;17.058;2022-12-24T11:09:35;8.80;99.90
2611;DHT22;5612;51.134;17.058;2022-12-24T11:12:17;8.80;99.90
2611;DHT22;5612;51.134;17.058;2022-12-24T11:15:00;8.80;99.90
2611;DHT22;5612;51.134;17.058;2022-12-24T11:17:30;8.70;99.90
2611;DHT22;5612;51.134;17.058;2022-12-24T11:19:59;8.60;99.90
2611;DHT22;5612;51.134;17.058;2022-12-24T11:22:31;8.60;99.90
2611;DHT22;5612;51.134;17.058;2022-12-24T11:25:04;8.70;99.90
2611;DHT22;5612;51.134;17.058;2022-12-24T11:27:39;8.80;99.90
2611;DHT22;5612;51.134;17.058;2022-12-24T11:30:30;9.00;99.90
2611;DHT22;5612;51.134;17.058;2022-12-24T11:33:19;9.00;99.90
2611;DHT22;5612;51.134;17.058;2022-12-24T11:35:52;8.90;99.90
2611;DHT22;5612;51.134;17.058;2022-12-24T11:38:24;9.00;99.90
2611;DHT22;5612;51.134;17.058;2022-12-24T11:41:07;9.00;99.90
2611;DHT22;5612;51.134;17.058;2022-12-24T11:43:41;9.10;99.90
2611;DHT22;5612;51.134;17.058;2022-12-24T11:46:17;9.20;99.90
2611;DHT22;5612;51.134;17.058;2022-12-24T11:48:47;9.10;99.90
2611;DHT22;5612;51.134;17.058;2022-12-24T11:51:22;9.10;99.90
2611;DHT22;5612;51.134;17.058;2022-12-24T11:54:01;9.10;99.90
2611;DHT22;5612;51.134;17.058;2022-12-24T11:56:40;9.10;99.90
2611;DHT22;5612;51.134;17.058;2022-12-24T11:59:18;9.10;99.90
2611;DHT22;5612;51.134;17.058;2022-12-24T12:01:55;9.20;99.90
2611;DHT22;5612;51.134;17.058;2022-12-24T12:04:29;9.20;99.90
2611;DHT22;5612;51.134;17.058;2022-12-24T12:07:02;9.20;99.90
2611;DHT22;5612;51.134;17.058;2022-12-24T12:09:44;9.20;99.90
2611;DHT22;5612;51.134;17.058;2022-12-24T12:12:21;9.20;99.90
2611;DHT22;5612;51.134;17.058;2022-12-24T12:14:52;9.20;99.90
2611;DHT22;5612;51.134;17.058;2022-12-24T12:17:30;9.20;99.90
2611;DHT22;5612;51.134;17.058;2022-12-24T12:20:05;9.20;99.90
2611;DHT22;5612;51.134;17.058;2022-12-24T12:22:39;9.20;99.90
2611;DHT22;5612;51.134;17.058;2022-12-24T12:25:18;9.30;99.90
2611;DHT22;5612;51.134;17.058;2022-12-24T12:27:54;9.40;99.90
2611;DHT22;5612;51.134;17.058;2022-12-24T12:30:24;9.50;99.90
2611;DHT22;5612;51.134;17.058;2022-12-24T12:33:01;9.50;99.90
2611;DHT22;5612;51.134;17.058;2022-12-24T12:35:34;9.50;99.90
2611;DHT22;5612;51.134;17.058;2022-12-24T12:38:07;9.50;99.90
2611;DHT22;5612;51.134;17.058;2022-12-24T12:41:11;9.60;99.90
2611;DHT22;5612;51.134;17.058;2022-12-24T12:44:11;9.70;99.90
2611;DHT22;5612;51.134;17.058;2022-12-24T12:46:55;9.90;99.90
2611;DHT22;5612;51.134;17.058;2022-12-24T12:49:35;10.30;99.90
2611;DHT22;5612;51.134;17.058;2022-12-24T12:52:15;10.80;99.90
2611;DHT22;5612;51.134;17.058;2022-12-24T12:54:55;10.80;99.90
2611;DHT22;5612;51.134;17.058;2022-12-24T12:57:34;10.70;99.90
2611;DHT22;5612;51.134;17.058;2022-12-24T13:00:06;10.50;99.90
2611;DHT22;5612;51.134;17.058;2022-12-24T13:02:50;10.70;99.90
2611;DHT22;5612;51.134;17.058;2022-12-24T13:05:50;11.30;99.90
2611;DHT22;5612;51.134;17.058;2022-12-24T13:08:37;11.50;53.40
2611;DHT22;5612;51.134;17.058;2022-12-24T13:11:33;11.30;54.70
2611;DHT22;5612;51.134;17.058;2022-12-24T13:14:21;11.70;22.50
2611;DHT22;5612;51.134;17.058;2022-12-24T13:17:15;12.10;1.00
2611;DHT22;5612;51.134;17.058;2022-12-24T13:20:03;12.20;1.00
2611;DHT22;5612;51.134;17.058;2022-12-24T13:22:42;11.70;1.00
2611;DHT22;5612;51.134;17.058;2022-12-24T13:25:20;11.30;22.00
2611;DHT22;5612;51.134;17.058;2022-12-24T13:27:50;11.00;53.70
2611;DHT22;5612;51.134;17.058;2022-12-24T13:30:36;10.70;68.80
2611;DHT22;5612;51.134;17.058;2022-12-24T13:33:09;10.60;86.40
2611;DHT22;5612;51.134;17.058;2022-12-24T13:35:56;10.50;90.40
2611;DHT22;5612;51.134;17.058;2022-12-24T13:38:33;10.50;96.70
2611;DHT22;5612;51.134;17.058;2022-12-24T13:44:25;10.80;91.70
2611;DHT22;5612;51.134;17.058;2022-12-24T13:47:15;10.80;60.00
2611;DHT22;5612;51.134;17.058;2022-12-24T13:50:20;10.80;59.10
2611;DHT22;5612;51.134;17.058;2022-12-24T13:52:51;10.70;37.90
2611;DHT22;5612;51.134;17.058;2022-12-24T13:55:22;10.60;46.20
2611;DHT22;5612;51.134;17.058;2022-12-24T13:57:56;10.60;56.50
2611;DHT22;5612;51.134;17.058;2022-12-24T14:00:33;10.50;38.20
2611;DHT22;5612;51.134;17.058;2022-12-24T14:03:16;10.50;33.10
2611;DHT22;5612;51.134;17.058;2022-12-24T14:05:48;10.40;39.30
2611;DHT22;5612;51.134;17.058;2022-12-24T14:08:36;10.30;55.10
2611;DHT22;5612;51.134;17.058;2022-12-24T14:11:10;10.30;52.50
2611;DHT22;5612;51.134;17.058;2022-12-24T14:14:08;10.30;51.90
2611;DHT22;5612;51.134;17.058;2022-12-24T14:16:51;10.60;9.70
2611;DHT22;5612;51.134;17.058;2022-12-24T14:19:21;10.70;2.70
2611;DHT22;5612;51.134;17.058;2022-12-24T14:21:55;10.70;12.20
2611;DHT22;5612;51.134;17.058;2022-12-24T14:24:32;10.60;4.10
2611;DHT22;5612;51.134;17.058;2022-12-24T14:27:13;10.40;1.00
2611;DHT22;5612;51.134;17.058;2022-12-24T14:29:49;10.20;28.00
2611;DHT22;5612;51.134;17.058;2022-12-24T14:32:18;10.10;19.40
2611;DHT22;5612;51.134;17.058;2022-12-24T14:35:07;9.90;29.80
2611;DHT22;5612;51.134;17.058;2022-12-24T14:37:37;9.70;25.10
2611;DHT22;5612;51.134;17.058;2022-12-24T14:40:12;9.50;39.50
2611;DHT22;5612;51.134;17.058;2022-12-24T14:42:50;9.30;76.40
2611;DHT22;5612;51.134;17.058;2022-12-24T14:45:27;9.30;73.00
2611;DHT22;5612;51.134;17.058;2022-12-24T14:48:05;9.40;99.90
2611;DHT22;5612;51.134;17.058;2022-12-24T14:50:50;9.40;69.30
2611;DHT22;5612;51.134;17.058;2022-12-24T14:56:20;9.20;96.20
2611;DHT22;5612;51.134;17.058;2022-12-24T14:58:50;9.20;99.90
2611;DHT22;5612;51.134;17.058;2022-12-24T15:01:21;9.10;99.90
2611;DHT22;5612;51.134;17.058;2022-12-24T15:04:01;9.10;99.90
2611;DHT22;5612;51.134;17.058;2022-12-24T15:06:32;9.00;99.90
2611;DHT22;5612;51.134;17.058;2022-12-24T15:09:02;8.90;99.90
2611;DHT22;5612;51.134;17.058;2022-12-24T15:11:32;8.90;99.90
2611;DHT22;5612;51.134;17.058;2022-12-24T15:14:02;9.00;99.90
2611;DHT22;5612;51.134;17.058;2022-12-24T15:16:33;8.90;99.90
2611;DHT22;5612;51.134;17.058;2022-12-24T15:19:05;9.10;99.90
2611;DHT22;5612;51.134;17.058;2022-12-24T15:21:36;9.00;92.40
2611;DHT22;5612;51.134;17.058;2022-12-24T15:24:23;9.00;96.50
2611;DHT22;5612;51.134;17.058;2022-12-24T15:26:53;8.80;91.60
2611;DHT22;5612;51.134;17.058;2022-12-24T15:29:25;8.70;91.30
2611;DHT22;5612;51.134;17.058;2022-12-24T15:31:55;8.60;95.30
2611;DHT22;5612;51.134;17.058;2022-12-24T15:34:26;8.50;99.90
2611;DHT22;5612;51.134;17.058;2022-12-24T15:37:04;8.40;99.90
2611;DHT22;5612;51.134;17.058;2022-12-24T15:39:34;8.30;99.90
2611;DHT22;5612;51.134;17.058;2022-12-24T15:42:04;8.40;99.90
2611;DHT22;5612;51.134;17.058;2022-12-24T15:44:55;8.50;99.90
2611;DHT22;5612;51.134;17.058;2022-12-24T15:47:27;8.60;90.60
2611;DHT22;5612;51.134;17.058;2022-12-24T15:50:09;8.60;98.30
2611;DHT22;5612;51.134;17.058;2022-12-24T15:52:43;8.60;98.00
2611;DHT22;5612;51.134;17.058;2022-12-24T15:55:27;8.60;96.20
2611;DHT22;5612;51.134;17.058;2022-12-24T15:57:56;8.50;98.50
2611;DHT22;5612;51.134;17.058;2022-12-24T16:00:27;8.60;96.30
2611;DHT22;5612;51.134;17.058;2022-12-24T16:03:10;8.70;93.40
2611;DHT22;5612;51.134;17.058;2022-12-24T16:05:39;8.70;93.70
2611;DHT22;5612;51.134;17.058;2022-12-24T16:08:30;8.70;86.80
2611;DHT22;5612;51.134;17.058;2022-12-24T16:11:10;8.60;82.00
2611;DHT22;5612;51.134;17.058;2022-12-24T16:13:50;8.50;94.60
2611;DHT22;5612;51.134;17.058;2022-12-24T16:16:32;8.50;93.40
2611;DHT22;5612;51.134;17.058;2022-12-24T16:19:02;8.40;99.40
2611;DHT22;5612;51.134;17.058;2022-12-24T16:21:34;8.50;99.90
2611;DHT22;5612;51.134;17.058;2022-12-24T16:24:06;8.60;98.40
2611;DHT22;5612;51.134;17.058;2022-12-24T16:26:35;8.50;96.10
2611;DHT22;5612;51.134;17.058;2022-12-24T16:29:04;8.60;98.70
2611;DHT22;5612;51.134;17.058;2022-12-24T16:31:36;8.60;98.60
2611;DHT22;5612;51.134;17.058;2022-12-24T16:34:09;8.50;99.90
2611;DHT22;5612;51.134;17.058;2022-12-24T16:36:39;8.60;99.90
2611;DHT22;5612;51.134;17.058;2022-12-24T16:39:11;8.60;99.90
2611;DHT22;5612;51.134;17.058;2022-12-24T16:41:54;8.60;99.90
2611;DHT22;5612;51.134;17.058;2022-12-24T16:44:40;8.60;99.90
2611;DHT22;5612;51.134;17.058;2022-12-24T16:47:13;8.60;99.90
2611;DHT22;5612;51.134;17.058;2022-12-24T16:49:42;8.60;99.90